createdAt,value
2023-04-10T00:05:50.325Z,7.2
2023-04-10T00:11:50.347Z,7.3
2023-04-10T00:17:50.349Z,7.2
2023-04-10T00:23:50.319Z,7.1
2023-04-10T00:29:50.311Z,7.1
2023-04-10T00:35:50.344Z,7
2023-04-10T00:41:50.336Z,7
2023-04-10T00:47:50.356Z,6.9
2023-04-10T00:53:50.334Z,6.8
2023-04-10T00:59:50.328Z,6.7
2023-04-10T01:05:50.323Z,6.7
2023-04-10T01:11:50.340Z,6.7
2023-04-10T01:17:50.372Z,6.8
2023-04-10T01:23:50.313Z,6.8
2023-04-10T01:29:50.320Z,6.7
2023-04-10T01:35:50.390Z,6.8
2023-04-10T01:41:50.392Z,6.7
2023-04-10T01:47:50.364Z,6.6
2023-04-10T01:53:50.330Z,6.6
2023-04-10T01:59:50.316Z,6.6
2023-04-10T02:11:50.311Z,6.3
2023-04-10T02:17:50.402Z,6.3
2023-04-10T02:23:50.340Z,6.4
2023-04-10T02:29:50.305Z,6.4
2023-04-10T02:41:50.334Z,6.5
2023-04-10T02:47:50.422Z,6.6
2023-04-10T02:53:50.325Z,6.7
2023-04-10T02:59:50.313Z,6.8
2023-04-10T03:05:50.323Z,6.9
2023-04-10T03:11:50.305Z,6.9
2023-04-10T03:17:50.344Z,7
2023-04-10T03:23:50.533Z,7
2023-04-10T03:29:50.306Z,6.9
2023-04-10T03:41:50.321Z,6.9
2023-04-10T03:47:50.336Z,6.9
2023-04-10T03:53:50.379Z,6.9
2023-04-10T03:59:50.310Z,6.7
2023-04-10T04:05:50.316Z,6.7
2023-04-10T04:11:50.295Z,6.5
2023-04-10T04:17:50.345Z,6.5
2023-04-10T04:23:50.307Z,6.4
2023-04-10T04:29:50.322Z,6.4
2023-04-10T04:35:50.341Z,6.4
2023-04-10T04:41:50.304Z,6.3
2023-04-10T04:47:50.370Z,6.3
2023-04-10T04:53:50.306Z,6.3
2023-04-10T04:59:50.321Z,6.3
2023-04-10T05:05:50.318Z,6.4
2023-04-10T05:12:00.577Z,6.5
2023-04-10T05:17:50.371Z,6.5
2023-04-10T05:23:50.290Z,6.5
2023-04-10T05:29:50.292Z,6.7
2023-04-10T05:35:50.361Z,6.7
2023-04-10T05:41:50.303Z,6.6
2023-04-10T05:47:50.378Z,6.9
2023-04-10T05:53:50.306Z,7
2023-04-10T05:59:50.297Z,7.1
2023-04-10T06:05:50.288Z,7.5
2023-04-10T06:11:50.285Z,8
2023-04-10T06:17:50.355Z,8.5
2023-04-10T06:23:50.300Z,9
2023-04-10T06:29:50.287Z,9.1
2023-04-10T06:35:50.290Z,11.2
2023-04-10T06:41:50.309Z,12.9
2023-04-10T06:47:50.342Z,14.1
2023-04-10T06:53:50.478Z,15.5
2023-04-10T06:59:50.313Z,15.4
2023-04-10T07:05:50.314Z,15.8
2023-04-10T07:11:50.318Z,17.2
2023-04-10T07:17:50.303Z,18.7
2023-04-10T07:23:50.284Z,18.9
2023-04-10T07:29:50.308Z,19.7
2023-04-10T07:41:50.293Z,19.1
2023-04-10T07:47:50.340Z,18.4
2023-04-10T07:53:50.307Z,18.5
2023-04-10T07:59:50.304Z,19
2023-04-10T08:05:50.311Z,19.7
2023-04-10T08:11:50.315Z,18.6
2023-04-10T08:17:50.353Z,17.6
2023-04-10T08:23:50.348Z,17.4
2023-04-10T08:29:50.304Z,18
2023-04-10T08:35:50.332Z,17.4
2023-04-10T08:41:50.346Z,17.5
2023-04-10T08:47:50.327Z,18.8
2023-04-10T08:53:50.318Z,18.3
2023-04-10T08:59:50.385Z,17.9
2023-04-10T09:05:50.312Z,17.2
2023-04-10T09:11:50.310Z,17.4
2023-04-10T09:17:50.360Z,17.3
2023-04-10T09:23:50.317Z,16.9
2023-04-10T09:29:50.335Z,17.3
2023-04-10T09:35:50.319Z,16.7
2023-04-10T09:41:50.338Z,16.9
2023-04-10T09:47:50.332Z,17.1
2023-04-10T09:53:50.312Z,17
2023-04-10T09:59:50.337Z,17.3
2023-04-10T10:05:50.332Z,17.4
2023-04-10T10:11:50.316Z,17
2023-04-10T10:17:50.394Z,17.1
2023-04-10T10:23:50.329Z,17.4
2023-04-10T10:29:50.345Z,18.7
2023-04-10T10:35:50.328Z,18.7
2023-04-10T10:41:50.331Z,18.2
2023-04-10T10:47:50.350Z,17.7
2023-04-10T10:53:50.329Z,19
2023-04-10T10:59:50.366Z,19.2
2023-04-10T11:05:50.357Z,19.7
2023-04-10T11:11:50.342Z,19.7
2023-04-10T11:17:50.372Z,18.9
2023-04-10T11:23:50.343Z,18.3
2023-04-10T11:29:50.338Z,17.8
2023-04-10T11:35:50.356Z,17.5
2023-04-10T11:41:50.329Z,17.2
2023-04-10T11:47:50.369Z,17.8
2023-04-10T11:53:50.325Z,17.5
2023-04-10T11:59:50.401Z,17.8
2023-04-10T12:05:50.398Z,17.2
2023-04-10T12:11:50.366Z,17.1
2023-04-10T12:17:50.410Z,17
2023-04-10T12:23:50.452Z,17
2023-04-10T12:29:50.452Z,17.3
2023-04-10T12:35:50.466Z,17.2
2023-04-10T12:41:50.416Z,17.2
2023-04-10T12:47:50.348Z,17.5
2023-04-10T12:53:50.502Z,17.5
2023-04-10T12:59:50.463Z,17.9
2023-04-10T13:05:50.338Z,18.1
2023-04-10T13:11:51.689Z,18.4
2023-04-10T13:17:50.411Z,18.6
2023-04-10T13:23:50.353Z,19.5
2023-04-10T13:29:50.352Z,19.2
2023-04-10T13:35:50.340Z,19
2023-04-10T13:41:50.346Z,18.6
2023-04-10T13:47:50.378Z,18.7
2023-04-10T13:53:50.344Z,18.4
2023-04-10T13:59:50.347Z,17.9
2023-04-10T14:05:50.374Z,17.9
2023-04-10T14:11:50.340Z,17.6
2023-04-10T14:17:50.369Z,17.8
2023-04-10T14:23:50.355Z,17.9
2023-04-10T14:29:54.738Z,18.2
2023-04-10T14:35:50.444Z,18.6
2023-04-10T14:41:50.419Z,18.4
2023-04-10T14:47:50.506Z,17.9
2023-04-10T14:53:50.354Z,18.1
2023-04-10T14:59:50.382Z,17.9
2023-04-10T15:05:50.340Z,18
2023-04-10T15:11:50.346Z,17.9
2023-04-10T15:17:50.505Z,17.9
2023-04-10T15:23:50.376Z,18
2023-04-10T15:29:50.355Z,17.9
2023-04-10T15:35:50.379Z,18.1
2023-04-10T15:41:50.351Z,17.7
2023-04-10T15:47:50.413Z,17.7
2023-04-10T15:53:50.348Z,17.5
2023-04-10T15:59:50.388Z,17.3
2023-04-10T16:05:50.365Z,17
2023-04-10T16:11:50.356Z,16.9
2023-04-10T16:17:50.487Z,16.9
2023-04-10T16:23:50.369Z,16.8
2023-04-10T16:29:50.355Z,16.6
2023-04-10T16:35:50.382Z,16.4
2023-04-10T16:41:50.379Z,16.4
2023-04-10T16:47:50.483Z,16.3
2023-04-10T16:53:50.357Z,16.2
2023-04-10T16:59:50.363Z,16.1
2023-04-10T17:05:50.388Z,15.9
2023-04-10T17:11:50.424Z,15.7
2023-04-10T17:17:50.487Z,15.8
2023-04-10T17:23:50.353Z,15.7
2023-04-10T17:29:50.358Z,15.7
2023-04-10T17:35:50.375Z,15.5
2023-04-10T17:41:50.351Z,15.1
2023-04-10T17:47:50.437Z,15.1
2023-04-10T17:53:50.390Z,14.6
2023-04-10T17:59:50.368Z,14.5
2023-04-10T18:05:50.356Z,14.5
2023-04-10T18:11:50.364Z,14.5
2023-04-10T18:17:50.391Z,14.4
2023-04-10T18:23:50.369Z,14.3
2023-04-10T18:29:50.384Z,14.5
2023-04-10T18:35:50.416Z,14.4
2023-04-10T18:41:50.358Z,14.1
2023-04-10T18:48:00.741Z,13.8
2023-04-10T18:53:50.361Z,13.9
2023-04-10T18:59:50.358Z,13.8
2023-04-10T19:05:50.360Z,14
2023-04-10T19:11:50.373Z,13.9
2023-04-10T19:17:50.402Z,13.7
2023-04-10T19:23:50.392Z,13.8
2023-04-10T19:29:50.374Z,13.8
2023-04-10T19:35:50.383Z,13.6
2023-04-10T19:41:50.381Z,13.7
2023-04-10T19:47:50.408Z,13.9
2023-04-10T19:53:50.381Z,13.8
2023-04-10T19:59:50.383Z,14
2023-04-10T20:05:50.658Z,13.8
2023-04-10T20:11:50.360Z,13.5
2023-04-10T20:17:50.381Z,13.1
2023-04-10T20:23:50.372Z,13.2
2023-04-10T20:29:50.355Z,12.8
2023-04-10T20:35:50.422Z,12.5
2023-04-10T20:41:50.389Z,12.6
2023-04-10T20:47:50.424Z,12.6
2023-04-10T20:53:50.366Z,12.4
2023-04-10T20:59:50.386Z,12.1
2023-04-10T21:11:50.383Z,10.8
2023-04-10T21:17:50.467Z,10.2
2023-04-10T21:23:50.408Z,10
2023-04-10T21:29:50.381Z,10
2023-04-10T21:35:50.409Z,10.3
2023-04-10T21:41:50.383Z,10.5
2023-04-10T21:47:50.363Z,10.9
2023-04-10T21:53:50.365Z,11.2
2023-04-10T21:59:50.412Z,10.9
2023-04-10T22:05:50.361Z,10.7
2023-04-10T22:11:50.380Z,10.5
2023-04-10T22:17:50.463Z,10.6
2023-04-10T22:23:50.395Z,10.6
2023-04-10T22:30:02.085Z,10.3
2023-04-10T22:35:50.399Z,9.9
2023-04-10T22:41:50.370Z,9.7
2023-04-10T22:47:50.398Z,9.7
2023-04-10T22:53:50.376Z,9.7
2023-04-10T22:59:50.373Z,9.5
2023-04-10T23:05:50.402Z,9.4
2023-04-10T23:11:50.370Z,9.3
2023-04-10T23:17:50.367Z,9.3
2023-04-10T23:23:50.382Z,9.4
2023-04-10T23:29:50.380Z,9.3
2023-04-10T23:35:50.416Z,9.2
2023-04-10T23:41:50.383Z,9.2
2023-04-10T23:47:51.137Z,9.3
2023-04-10T23:53:50.709Z,9.4
2023-04-10T23:59:50.368Z,9.2
